Time;durP1;ratioP1;P1;durP2;ratioP2;P2;SDS_P1;SDS_P2;PMS_P1;PMS_P2;Temp;Humidity;BMP_temperature;BMP_pressure;BME280_temperature;BME280_humidity;BME280_pressure;Samples;Min_cycle;Max_cycle;Signal;HPM_P1;HPM_P2
2022/01/09 00:00:59;;;;;;;14.83;8.57;;;;;;;-3.64;100.00;99370.69;4979821;28;20903;-77
2022/01/09 00:03:25;;;;;;;15.57;8.80;;;;;;;-3.64;100.00;99355.41;4985263;28;20847;-77
2022/01/09 00:05:51;;;;;;;18.83;9.33;;;;;;;-3.64;100.00;99350.31;4985069;28;20538;-77
2022/01/09 00:08:18;;;;;;;19.13;9.37;;;;;;;-3.66;100.00;99344.38;4991998;28;20465;-77
2022/01/09 00:10:47;;;;;;;18.93;9.33;;;;;;;-3.64;100.00;99340.13;4978468;28;20471;-77
2022/01/09 00:13:13;;;;;;;25.67;10.93;;;;;;;-3.60;100.00;99335.91;4979265;28;20485;-77
2022/01/09 00:15:43;;;;;;;20.60;10.83;;;;;;;-3.58;100.00;99330.84;4986886;28;21019;-77
2022/01/09 00:18:09;;;;;;;21.00;10.47;;;;;;;-3.59;100.00;99322.31;4985565;28;20469;-77
2022/01/09 00:20:35;;;;;;;17.83;9.20;;;;;;;-3.53;100.00;99316.47;4986151;28;20465;-77
2022/01/09 00:23:02;;;;;;;16.27;9.70;;;;;;;-3.58;100.00;99313.00;4981637;28;20817;-77
2022/01/09 00:25:28;;;;;;;19.20;9.70;;;;;;;-3.58;100.00;99307.91;4983110;28;20478;-77
2022/01/09 00:27:55;;;;;;;18.23;9.87;;;;;;;-3.52;100.00;99295.22;4984957;28;20462;-76
2022/01/09 00:30:23;;;;;;;19.17;9.37;;;;;;;-3.53;100.00;99284.19;4982584;28;20467;-76
2022/01/09 00:32:51;;;;;;;24.23;10.60;;;;;;;-3.51;100.00;99281.66;4983848;28;20537;-76
2022/01/09 00:35:18;;;;;;;21.90;9.47;;;;;;;-3.43;100.00;99282.56;4984820;28;21198;-76
2022/01/09 00:37:44;;;;;;;23.63;10.63;;;;;;;-3.47;100.00;99278.28;4987999;28;20457;-76
2022/01/09 00:40:12;;;;;;;21.50;10.73;;;;;;;-3.51;100.00;99272.28;4991263;28;20469;-76
2022/01/09 00:42:41;;;;;;;21.57;10.60;;;;;;;-3.50;100.00;99274.03;4982362;28;20487;-77
2022/01/09 00:45:09;;;;;;;22.40;10.77;;;;;;;-3.48;100.00;99274.03;4991127;28;20477;-77
2022/01/09 00:47:35;;;;;;;23.03;9.90;;;;;;;-3.48;100.00;99279.97;4997588;28;20468;-76
2022/01/09 00:50:04;;;;;;;23.57;9.80;;;;;;;-3.53;100.00;99278.25;4983866;28;20469;-77
2022/01/09 00:52:30;;;;;;;20.10;9.47;;;;;;;-3.58;100.00;99270.53;4985932;28;20480;-76
2022/01/09 00:54:57;;;;;;;21.33;9.57;;;;;;;-3.60;100.00;99271.38;4992701;28;20460;-76
2022/01/09 00:57:23;;;;;;;21.60;10.83;;;;;;;-3.62;100.00;99268.81;4990168;28;20458;-76
2022/01/09 00:59:50;;;;;;;23.00;10.37;;;;;;;-3.64;100.00;99271.34;4996218;28;20459;-76
2022/01/09 01:02:16;;;;;;;21.80;9.53;;;;;;;-3.57;100.00;99274.81;4987449;28;20497;-77
2022/01/09 01:04:43;;;;;;;21.47;10.03;;;;;;;-3.57;100.00;99277.34;4991845;28;20453;-76
2022/01/09 01:07:11;;;;;;;18.40;9.13;;;;;;;-3.59;100.00;99271.38;4987669;28;20489;-76
2022/01/09 01:09:37;;;;;;;21.07;9.83;;;;;;;-3.63;100.00;99272.19;4989534;28;20568;-76
2022/01/09 01:12:04;;;;;;;22.47;10.37;;;;;;;-3.64;100.00;99266.25;4996496;28;20494;-76
2022/01/09 01:14:32;;;;;;;24.27;10.03;;;;;;;-3.66;100.00;99262.84;4985444;28;20461;-76
2022/01/09 01:16:58;;;;;;;23.33;9.30;;;;;;;-3.68;100.00;99261.94;4988227;28;20464;-76
2022/01/09 01:19:25;;;;;;;22.23;9.33;;;;;;;-3.69;100.00;99259.41;4983494;28;20948;-76
2022/01/09 01:21:51;;;;;;;20.67;8.97;;;;;;;-3.71;100.00;99240.69;4983504;28;20549;-76
2022/01/09 01:24:21;;;;;;;18.23;9.13;;;;;;;-3.72;100.00;99237.28;4990745;28;21056;-76
2022/01/09 01:26:47;;;;;;;20.00;9.50;;;;;;;-3.72;100.00;99232.19;4988318;28;21025;-76
2022/01/09 01:29:13;;;;;;;17.90;9.07;;;;;;;-3.70;100.00;99230.50;4988976;28;20979;-77
2022/01/09 01:31:40;;;;;;;19.57;9.77;;;;;;;-3.69;100.00;99227.13;4983978;28;20475;-76
2022/01/09 01:34:07;;;;;;;20.07;9.93;;;;;;;-3.71;100.00;99223.72;4992261;28;20459;-76
2022/01/09 01:36:34;;;;;;;20.23;9.50;;;;;;;-3.74;100.00;99223.69;4983476;28;20540;-77
2022/01/09 01:39:00;;;;;;;18.77;9.70;;;;;;;-3.77;100.00;99225.34;4986692;28;20452;-76
2022/01/09 01:41:28;;;;;;;20.53;9.97;;;;;;;-3.73;100.00;99210.13;4986090;28;20473;-76
2022/01/09 01:43:55;;;;;;;18.97;8.50;;;;;;;-3.72;100.00;99205.88;4981813;28;20982;-76
2022/01/09 01:46:21;;;;;;;20.03;9.07;;;;;;;-3.74;100.00;99200.75;4993409;28;20486;-76
2022/01/09 01:48:49;;;;;;;21.70;9.30;;;;;;;-3.71;100.00;99195.69;4982034;28;20497;-76
2022/01/09 01:51:15;;;;;;;22.13;9.03;;;;;;;-3.72;100.00;99190.59;4984670;28;20458;-77
2022/01/09 01:53:41;;;;;;;20.87;9.90;;;;;;;-3.76;100.00;99186.28;4986041;28;20474;-76
2022/01/09 01:56:12;;;;;;;18.20;9.17;;;;;;;-3.75;100.00;99191.41;4992807;28;21187;-76
2022/01/09 01:58:40;;;;;;;22.57;8.67;;;;;;;-3.70;100.00;99191.44;4983301;28;20454;-76
2022/01/09 02:01:06;;;;;;;16.57;8.97;;;;;;;-3.75;100.00;99183.75;4985027;28;20456;-76
2022/01/09 02:03:32;;;;;;;18.77;9.00;;;;;;;-3.77;100.00;99180.34;4990006;28;20866;-76
2022/01/09 02:05:59;;;;;;;17.87;8.50;;;;;;;-3.79;100.00;99174.38;4985265;28;20996;-76
2022/01/09 02:08:25;;;;;;;20.67;8.47;;;;;;;-3.78;100.00;99163.38;4988437;28;20459;-77
2022/01/09 02:10:52;;;;;;;16.63;8.43;;;;;;;-3.67;100.00;99171.09;4988242;28;21255;-76
2022/01/09 02:13:19;;;;;;;17.77;7.87;;;;;;;-3.65;100.00;99171.97;4992236;28;20481;-76
2022/01/09 02:15:48;;;;;;;19.73;7.83;;;;;;;-3.70;100.00;99163.41;4981693;28;20497;-76
2022/01/09 02:18:17;;;;;;;13.63;8.23;;;;;;;-3.73;100.00;99158.28;4975658;28;20493;-76
2022/01/09 02:20:45;;;;;;;16.43;8.27;;;;;;;-3.73;100.00;99159.16;4985228;28;20467;-76
2022/01/09 02:23:14;;;;;;;16.83;7.70;;;;;;;-3.71;100.00;99157.47;4986329;28;20484;-76
2022/01/09 02:25:41;;;;;;;17.63;8.07;;;;;;;-3.70;100.00;99154.06;4987893;28;21040;-76
2022/01/09 02:28:09;;;;;;;22.27;8.70;;;;;;;-3.65;100.00;99147.31;4986277;28;20982;-76
2022/01/09 02:30:36;;;;;;;18.33;8.47;;;;;;;-3.65;100.00;99147.31;4987345;28;20468;-76
2022/01/09 02:33:05;;;;;;;16.77;8.07;;;;;;;-3.60;100.00;99141.44;4982558;28;20477;-76
2022/01/09 02:35:32;;;;;;;17.17;8.37;;;;;;;-3.61;100.00;99140.56;4981278;28;20462;-76
2022/01/09 02:38:00;;;;;;;16.77;7.80;;;;;;;-3.61;100.00;99127.81;4986350;28;20454;-76
2022/01/09 02:40:27;;;;;;;17.17;7.87;;;;;;;-3.63;100.00;99139.69;4984686;28;20981;-77
2022/01/09 02:42:54;;;;;;;21.00;8.43;;;;;;;-3.59;100.00;99133.78;4990334;28;21021;-77
2022/01/09 02:45:23;;;;;;;22.93;9.00;;;;;;;-3.52;100.00;99129.56;4986197;28;20829;-77
2022/01/09 02:47:50;;;;;;;24.30;8.63;;;;;;;-3.51;100.00;99127.03;4987941;28;20521;-76
2022/01/09 02:50:30;;;;;;;20.20;8.60;;;;;;;-3.49;100.00;99122.81;4990062;28;20456;-77
2022/01/09 02:52:59;;;;;;;20.13;8.00;;;;;;;-3.49;100.00;99117.72;4991360;28;20479;-77
2022/01/09 02:55:28;;;;;;;15.53;7.77;;;;;;;-3.53;100.00;99110.06;4989646;28;20550;-77
2022/01/09 02:57:56;;;;;;;17.13;7.87;;;;;;;-3.50;100.00;99107.50;4984572;28;20944;-77
2022/01/09 03:00:24;;;;;;;22.03;8.40;;;;;;;-3.51;100.00;99100.72;4984137;28;20458;-76
2022/01/09 03:02:51;;;;;;;15.63;8.10;;;;;;;-3.52;100.00;99096.44;4990645;28;20490;-77
2022/01/09 03:05:18;;;;;;;19.27;8.77;;;;;;;-3.52;100.00;99101.53;4983434;28;20467;-76
2022/01/09 03:07:45;;;;;;;18.90;8.50;;;;;;;-3.51;100.00;99093.91;4989460;28;20489;-77
2022/01/09 03:10:13;;;;;;;16.67;8.00;;;;;;;-3.51;100.00;99095.63;4984319;28;20474;-76
2022/01/09 03:12:41;;;;;;;17.03;8.00;;;;;;;-3.51;100.00;99093.91;4987557;28;20473;-76
2022/01/09 03:15:09;;;;;;;17.10;7.60;;;;;;;-3.46;100.00;99081.22;4982813;28;20477;-76
2022/01/09 03:17:36;;;;;;;18.17;8.33;;;;;;;-3.39;100.00;99079.53;4983040;28;21071;-76
2022/01/09 03:20:05;;;;;;;22.27;8.30;;;;;;;-3.33;100.00;99075.31;4990241;28;20460;-76
2022/01/09 03:22:31;;;;;;;20.37;8.53;;;;;;;-3.34;100.00;99065.13;4983069;28;20488;-76
2022/01/09 03:24:58;;;;;;;18.90;7.93;;;;;;;-3.34;100.00;99063.44;4995035;28;20452;-76
2022/01/09 03:27:24;;;;;;;16.67;7.73;;;;;;;-3.33;100.00;99062.56;4984592;28;20496;-76
2022/01/09 03:29:52;;;;;;;15.40;7.13;;;;;;;-3.35;100.00;99060.88;4976714;28;20471;-76
2022/01/09 03:32:18;;;;;;;16.07;7.83;;;;;;;-3.36;100.00;99060.03;4989132;28;20482;-76
2022/01/09 03:34:45;;;;;;;11.93;6.67;;;;;;;-3.35;100.00;99064.28;4984447;28;20983;-76
2022/01/09 03:37:11;;;;;;;14.63;7.70;;;;;;;-3.35;100.00;99055.78;4979948;28;21132;-76
2022/01/09 03:39:38;;;;;;;13.43;7.40;;;;;;;-3.35;100.00;99055.78;4986544;28;20463;-76
2022/01/09 03:42:05;;;;;;;16.70;7.97;;;;;;;-3.35;100.00;99056.63;4985671;28;20495;-76
2022/01/09 03:44:32;;;;;;;18.37;7.57;;;;;;;-3.35;100.00;99046.44;4992604;28;20465;-76
2022/01/09 03:46:59;;;;;;;20.20;7.97;;;;;;;-3.34;100.00;99055.78;4971095;28;20475;-77
2022/01/09 03:49:26;;;;;;;14.43;7.37;;;;;;;-3.36;100.00;99046.41;4982129;28;20466;-77
2022/01/09 03:51:54;;;;;;;15.40;7.63;;;;;;;-3.34;100.00;99058.34;4979759;28;20535;-77
2022/01/09 03:54:22;;;;;;;18.07;8.03;;;;;;;-3.29;100.00;99050.69;4992147;28;20477;-77
2022/01/09 03:56:49;;;;;;;16.63;7.43;;;;;;;-3.30;100.00;99047.31;4990458;28;20452;-76
2022/01/09 03:59:15;;;;;;;13.93;6.83;;;;;;;-3.29;100.00;99059.22;4987199;28;20549;-77
2022/01/09 04:01:41;;;;;;;16.87;7.70;;;;;;;-3.33;100.00;99051.53;4988939;28;20456;-76
2022/01/09 04:04:09;;;;;;;14.57;7.70;;;;;;;-3.32;100.00;99045.59;4980391;28;20469;-76
2022/01/09 04:06:39;;;;;;;16.63;7.33;;;;;;;-3.33;100.00;99047.28;4979735;28;20483;-77
2022/01/09 04:09:16;;;;;;;16.03;7.40;;;;;;;-3.33;100.00;99049.84;4985270;28;20988;-77
2022/01/09 04:11:43;;;;;;;17.57;8.20;;;;;;;-3.30;100.00;99038.81;4982589;28;20567;-77
2022/01/09 04:14:09;;;;;;;14.70;7.70;;;;;;;-3.30;100.00;99041.38;4976406;28;20479;-76
2022/01/09 04:16:36;;;;;;;13.00;7.03;;;;;;;-3.28;100.00;99043.06;4997917;28;20475;-77
2022/01/09 04:19:03;;;;;;;13.97;6.77;;;;;;;-3.29;100.00;99041.38;4987724;28;20208;-77
2022/01/09 04:21:30;;;;;;;16.07;7.23;;;;;;;-3.32;100.00;99036.25;4984215;28;20473;-76
2022/01/09 04:23:57;;;;;;;16.80;7.27;;;;;;;-3.35;100.00;99033.69;4978172;28;20845;-76
2022/01/09 04:26:23;;;;;;;15.33;7.37;;;;;;;-3.34;100.00;99027.75;4981388;28;20840;-76
2022/01/09 04:28:49;;;;;;;17.63;7.23;;;;;;;-3.33;100.00;99024.34;4985004;28;20463;-76
2022/01/09 04:31:16;;;;;;;12.83;6.60;;;;;;;-3.32;100.00;99018.41;4985877;28;20481;-76
2022/01/09 04:33:43;;;;;;;12.07;6.30;;;;;;;-3.32;100.00;99015.03;4980617;28;20486;-77
2022/01/09 04:36:09;;;;;;;14.80;7.03;;;;;;;-3.29;100.00;99013.34;4980383;28;20538;-77
2022/01/09 04:38:37;;;;;;;15.23;6.77;;;;;;;-3.27;100.00;99005.69;4982481;28;20949;-76
2022/01/09 04:41:04;;;;;;;16.17;6.97;;;;;;;-3.24;100.00;98998.03;4980883;28;20541;-76
2022/01/09 04:43:30;;;;;;;14.30;6.73;;;;;;;-3.20;100.00;98991.25;4983376;28;20486;-76
2022/01/09 04:45:56;;;;;;;10.13;5.90;;;;;;;-3.26;100.00;98990.38;4988870;28;20459;-76
2022/01/09 04:48:23;;;;;;;12.13;6.30;;;;;;;-3.24;100.00;98991.25;4996176;28;20477;-77
2022/01/09 04:50:52;;;;;;;12.50;6.77;;;;;;;-3.19;100.00;98993.81;4987215;28;20803;-76
2022/01/09 04:53:18;;;;;;;11.20;6.50;;;;;;;-3.19;100.00;98991.25;4982284;28;20491;-77
2022/01/09 04:55:49;;;;;;;13.03;6.57;;;;;;;-3.14;100.00;98981.94;4976876;28;20452;-76
2022/01/09 04:58:16;;;;;;;12.00;6.50;;;;;;;-3.11;100.00;98978.56;4977493;28;20488;-77
2022/01/09 05:00:42;;;;;;;12.93;7.17;;;;;;;-3.10;100.00;98975.13;4990605;28;20958;-77
2022/01/09 05:03:09;;;;;;;12.60;5.83;;;;;;;-3.05;100.00;98973.44;4988786;28;20482;-76
2022/01/09 05:05:36;;;;;;;16.03;6.30;;;;;;;-3.01;100.00;98971.75;4986488;28;21075;-76
2022/01/09 05:08:03;;;;;;;11.27;6.30;;;;;;;-2.92;100.00;98976.88;4977476;28;20485;-76
2022/01/09 05:10:29;;;;;;;12.70;5.73;;;;;;;-2.89;100.00;98987.09;4991173;28;20491;-76
2022/01/09 05:12:57;;;;;;;13.73;5.80;;;;;;;-2.90;100.00;98976.03;4983604;28;20485;-76
2022/01/09 05:15:24;;;;;;;11.20;5.90;;;;;;;-2.88;100.00;98987.09;4984487;28;20204;-78
2022/01/09 05:17:53;;;;;;;11.33;5.63;;;;;;;-2.82;100.00;98985.41;4984661;28;20510;-77
2022/01/09 05:20:19;;;;;;;9.57;5.90;;;;;;;-2.81;100.00;98977.75;4991357;28;20953;-76
2022/01/09 05:22:46;;;;;;;10.50;5.77;;;;;;;-2.77;100.00;98978.63;4978210;28;20487;-76
2022/01/09 05:25:12;;;;;;;13.97;6.07;;;;;;;-2.78;100.00;98984.56;4989379;28;21023;-77
2022/01/09 05:27:39;;;;;;;10.27;5.37;;;;;;;-2.81;100.00;98980.31;4989749;28;20483;-76
2022/01/09 05:30:08;;;;;;;9.03;5.17;;;;;;;-2.78;100.00;98980.31;4989257;28;20475;-76
2022/01/09 05:32:34;;;;;;;9.90;5.50;;;;;;;-2.74;100.00;98987.13;4991512;28;20475;-76
2022/01/09 05:35:01;;;;;;;10.63;4.97;;;;;;;-2.67;100.00;98980.34;4988136;28;20549;-76
2022/01/09 05:37:27;;;;;;;10.60;4.70;;;;;;;-2.61;100.00;98982.88;4983009;28;20464;-76
2022/01/09 05:39:53;;;;;;;8.00;4.80;;;;;;;-2.56;100.00;98980.34;4982113;28;20464;-76
2022/01/09 05:42:20;;;;;;;9.97;5.20;;;;;;;-2.51;100.00;98982.03;4979037;28;20231;-76
2022/01/09 05:44:47;;;;;;;9.23;5.00;;;;;;;-2.47;100.00;98981.19;4994894;28;20205;-76
2022/01/09 05:47:15;;;;;;;10.50;4.53;;;;;;;-2.42;100.00;98986.28;4986848;28;20482;-77
2022/01/09 05:49:41;;;;;;;8.93;4.73;;;;;;;-2.40;100.00;98997.34;4993129;28;20212;-77
2022/01/09 05:52:08;;;;;;;8.10;4.87;;;;;;;-2.33;100.00;98990.56;4989415;28;20236;-76
2022/01/09 05:54:34;;;;;;;8.17;4.53;;;;;;;-2.30;100.00;98986.28;4985265;28;20581;-76
2022/01/09 05:57:00;;;;;;;9.60;4.43;;;;;;;-2.30;100.00;98985.44;4985251;28;20589;-76
2022/01/09 05:59:27;;;;;;;7.07;3.93;;;;;;;-2.26;100.00;98984.59;4983099;28;20505;-77
2022/01/09 06:01:55;;;;;;;7.43;4.20;;;;;;;-2.23;100.00;98993.94;4990394;28;20223;-77
2022/01/09 06:04:23;;;;;;;9.47;4.50;;;;;;;-2.17;100.00;98981.19;4993076;28;20228;-77
2022/01/09 06:06:50;;;;;;;7.63;4.03;;;;;;;-2.13;100.00;98982.88;4987969;28;20220;-76
2022/01/09 06:09:16;;;;;;;8.23;3.97;;;;;;;-2.11;100.00;98983.72;4991411;28;20947;-76
2022/01/09 06:11:43;;;;;;;7.57;4.53;;;;;;;-2.08;100.00;98980.31;4989979;28;20213;-77
2022/01/09 06:14:10;;;;;;;7.20;4.20;;;;;;;-2.05;100.00;98983.72;4990497;28;20208;-76
2022/01/09 06:16:36;;;;;;;6.77;3.73;;;;;;;-2.05;100.00;98977.78;4980881;28;20210;-77
2022/01/09 06:19:03;;;;;;;7.63;4.33;;;;;;;-2.06;100.00;98973.50;4983134;28;20667;-76
2022/01/09 06:21:30;;;;;;;5.60;3.40;;;;;;;-2.08;100.00;98982.88;4987079;28;20202;-76
2022/01/09 06:23:57;;;;;;;6.77;3.93;;;;;;;-2.11;100.00;98976.06;4991163;28;20229;-76
2022/01/09 06:26:23;;;;;;;8.13;4.37;;;;;;;-2.14;100.00;98987.13;4983158;28;20197;-76
2022/01/09 06:28:50;;;;;;;5.53;3.67;;;;;;;-2.16;100.00;98981.19;4989768;28;20768;-76
2022/01/09 06:31:17;;;;;;;5.37;3.10;;;;;;;-2.23;100.00;98976.94;4988932;28;20349;-76
2022/01/09 06:33:43;;;;;;;7.57;3.87;;;;;;;-2.30;100.00;98970.13;4986325;28;20642;-76
2022/01/09 06:36:10;;;;;;;6.77;3.60;;;;;;;-2.35;100.00;98966.72;4985196;28;20206;-76
2022/01/09 06:38:38;;;;;;;5.47;3.37;;;;;;;-2.33;100.00;98968.41;4987768;28;20677;-76
2022/01/09 06:41:04;;;;;;;6.00;3.43;;;;;;;-2.36;100.00;98972.69;4985784;28;20198;-76
2022/01/09 06:43:31;;;;;;;9.20;3.87;;;;;;;-2.37;100.00;98979.50;4990659;28;20225;-76
2022/01/09 06:45:57;;;;;;;7.33;3.83;;;;;;;-2.36;100.00;98976.06;4986932;28;20213;-76
2022/01/09 06:48:24;;;;;;;6.00;3.73;;;;;;;-2.34;100.00;98981.19;4989150;28;20540;-76
2022/01/09 06:50:50;;;;;;;6.00;3.40;;;;;;;-2.35;100.00;98982.88;4984880;28;20209;-77
2022/01/09 06:53:17;;;;;;;7.90;3.77;;;;;;;-2.33;100.00;98986.28;4996330;28;20483;-76
2022/01/09 06:55:44;;;;;;;6.40;3.47;;;;;;;-2.29;100.00;98989.69;4982680;28;20213;-77
2022/01/09 06:58:11;;;;;;;4.17;3.13;;;;;;;-2.26;100.00;98986.31;4992965;28;20541;-77
2022/01/09 07:00:37;;;;;;;6.40;3.50;;;;;;;-2.20;100.00;98983.72;4985813;28;20220;-76
2022/01/09 07:03:04;;;;;;;6.70;3.40;;;;;;;-2.16;100.00;98991.41;4993075;28;20228;-77
2022/01/09 07:05:30;;;;;;;5.87;3.57;;;;;;;-2.11;100.00;98989.69;4986082;28;20213;-76
2022/01/09 07:07:56;;;;;;;6.83;3.67;;;;;;;-2.07;100.00;98993.09;4987062;28;20221;-76
2022/01/09 07:10:23;;;;;;;5.37;3.20;;;;;;;-2.01;100.00;98995.63;4992606;28;20644;-76
2022/01/09 07:12:51;;;;;;;5.57;3.20;;;;;;;-1.95;100.00;98987.97;4985230;28;20221;-76
2022/01/09 07:15:17;;;;;;;6.43;3.60;;;;;;;-1.86;100.00;98984.53;4983826;28;20202;-77
2022/01/09 07:17:44;;;;;;;6.60;3.40;;;;;;;-1.81;100.00;98987.06;4986211;28;20189;-77
2022/01/09 07:20:11;;;;;;;7.20;4.73;;;;;;;-1.75;100.00;98985.34;4988579;28;20197;-76
2022/01/09 07:22:38;;;;;;;9.27;5.37;;;;;;;-1.72;100.00;98982.81;4980581;28;20222;-77
2022/01/09 07:25:06;;;;;;;8.30;5.33;;;;;;;-1.67;100.00;98981.94;4987510;28;20202;-76
2022/01/09 07:27:33;;;;;;;9.67;4.37;;;;;;;-1.63;100.00;98981.09;4986905;28;20213;-76
2022/01/09 07:30:00;;;;;;;56.67;20.50;;;;;;;-1.59;100.00;98977.66;4985357;28;20197;-76
2022/01/09 07:32:28;;;;;;;24.43;11.50;;;;;;;-1.56;100.00;98985.31;4983286;28;20766;-77
2022/01/09 07:34:57;;;;;;;34.37;12.50;;;;;;;-1.53;100.00;98981.03;4980094;28;20899;-76
2022/01/09 07:37:25;;;;;;;80.80;28.43;;;;;;;-1.46;100.00;98984.44;4987658;28;20532;-77
2022/01/09 07:39:51;;;;;;;83.47;32.23;;;;;;;-1.42;100.00;98982.72;4988202;28;20205;-76
2022/01/09 07:42:18;;;;;;;49.47;21.23;;;;;;;-1.40;100.00;98984.41;4978624;28;20690;-76
2022/01/09 07:44:44;;;;;;;13.63;7.57;;;;;;;-1.37;100.00;98979.28;4982288;28;20197;-77
2022/01/09 07:47:12;;;;;;;11.30;6.73;;;;;;;-1.34;100.00;98979.28;4985401;28;20209;-76
2022/01/09 07:49:38;;;;;;;7.97;4.50;;;;;;;-1.28;100.00;98980.09;4981705;28;20201;-76
2022/01/09 07:52:05;;;;;;;13.27;8.13;;;;;;;-1.23;100.00;98973.25;4984497;28;20248;-77
2022/01/09 07:54:31;;;;;;;4.50;3.10;;;;;;;-1.20;100.00;98971.50;4986650;28;20215;-77
2022/01/09 07:56:58;;;;;;;37.07;15.63;;;;;;;-1.17;100.00;98968.94;4985869;28;20212;-77
2022/01/09 07:59:24;;;;;;;8.67;4.03;;;;;;;-1.15;100.00;98968.94;4984566;28;20205;-76
2022/01/09 08:01:51;;;;;;;12.87;10.33;;;;;;;-1.10;100.00;98972.34;4983991;28;20216;-77
2022/01/09 08:04:19;;;;;;;7.17;5.03;;;;;;;-1.05;100.00;98968.03;4983906;28;20201;-77
2022/01/09 08:06:46;;;;;;;6.23;4.10;;;;;;;-1.02;100.00;98980.81;4982200;28;20205;-77
2022/01/09 08:09:12;;;;;;;6.27;3.80;;;;;;;-0.98;100.00;98973.97;4990830;28;20224;-76
2022/01/09 08:11:39;;;;;;;6.43;4.10;;;;;;;-0.95;100.00;98971.38;4985073;28;20197;-76
2022/01/09 08:14:05;;;;;;;5.07;3.60;;;;;;;-0.92;100.00;98976.50;4989104;28;20205;-77
2022/01/09 08:16:31;;;;;;;5.90;4.03;;;;;;;-0.89;100.00;98979.03;4986081;28;20588;-76
2022/01/09 08:18:58;;;;;;;7.07;4.30;;;;;;;-0.86;100.00;98976.47;4982540;28;20216;-77
2022/01/09 08:21:25;;;;;;;6.43;3.43;;;;;;;-0.81;100.00;98972.16;4987204;28;20206;-76
2022/01/09 08:23:52;;;;;;;5.07;3.13;;;;;;;-0.78;100.00;98976.41;4983319;28;20227;-77
2022/01/09 08:26:18;;;;;;;11.50;7.37;;;;;;;-0.74;99.65;98972.97;4977228;28;20212;-76
2022/01/09 08:28:47;;;;;;;10.90;6.07;;;;;;;-0.68;99.15;98970.38;4980537;28;20729;-77
2022/01/09 08:31:14;;;;;;;7.00;4.57;;;;;;;-0.64;99.26;98972.03;4978219;28;20201;-77
2022/01/09 08:33:41;;;;;;;8.67;5.00;;;;;;;-0.60;99.54;98972.88;4982945;28;20228;-77
2022/01/09 08:36:07;;;;;;;6.23;4.00;;;;;;;-0.55;98.72;98972.84;4977198;28;20201;-77
2022/01/09 08:38:35;;;;;;;9.83;5.27;;;;;;;-0.51;98.87;98975.38;4985376;28;20193;-78
2022/01/09 08:41:01;;;;;;;5.30;3.53;;;;;;;-0.45;98.08;98966.78;4983290;28;20701;-78
2022/01/09 08:43:31;;;;;;;4.93;3.10;;;;;;;-0.39;98.46;98966.72;4982002;28;20687;-78
2022/01/09 08:45:58;;;;;;;5.60;3.60;;;;;;;-0.35;97.95;98973.53;4984469;28;20207;-78
2022/01/09 08:48:24;;;;;;;5.97;4.20;;;;;;;-0.31;98.46;98974.38;4980888;28;20225;-78
2022/01/09 08:50:50;;;;;;;7.20;3.90;;;;;;;-0.28;98.11;98964.06;4981519;28;20214;-78
2022/01/09 08:53:17;;;;;;;7.13;4.33;;;;;;;-0.24;97.48;98976.00;4981991;28;20646;-78
2022/01/09 08:55:44;;;;;;;5.40;3.37;;;;;;;-0.20;96.86;98973.38;4984090;28;20193;-78
2022/01/09 08:58:11;;;;;;;6.60;3.67;;;;;;;-0.16;97.40;98971.66;4981902;28;20555;-78
2022/01/09 09:00:37;;;;;;;4.97;3.07;;;;;;;-0.13;98.03;98968.22;4985268;28;20285;-78
2022/01/09 09:03:05;;;;;;;5.77;3.20;;;;;;;-0.10;97.68;98973.34;4985894;28;20229;-78
2022/01/09 09:05:31;;;;;;;4.67;3.47;;;;;;;-0.07;97.52;98970.72;4982515;28;20205;-78
2022/01/09 09:07:58;;;;;;;4.23;3.13;;;;;;;-0.04;97.32;98976.66;4991555;28;20210;-78
2022/01/09 09:10:25;;;;;;;4.83;3.37;;;;;;;0.01;96.99;98976.63;4984695;28;20208;-78
2022/01/09 09:12:54;;;;;;;5.03;3.57;;;;;;;0.03;97.37;98972.34;4991000;28;20941;-78
2022/01/09 09:15:22;;;;;;;3.63;2.90;;;;;;;0.07;97.32;98970.59;4983674;28;20204;-78
2022/01/09 09:17:48;;;;;;;5.97;3.50;;;;;;;0.12;97.20;98973.97;4992105;28;20323;-78
2022/01/09 09:20:15;;;;;;;5.33;3.50;;;;;;;0.15;96.61;98973.94;4984587;28;20208;-78
2022/01/09 09:22:41;;;;;;;4.70;3.30;;;;;;;0.18;96.27;98982.44;4986386;28;20295;-79
2022/01/09 09:25:09;;;;;;;4.83;3.27;;;;;;;0.22;96.73;98985.81;4983124;28;20212;-78
2022/01/09 09:27:35;;;;;;;4.60;3.10;;;;;;;0.25;96.33;98975.53;4988355;28;20212;-78
2022/01/09 09:30:05;;;;;;;5.97;3.50;;;;;;;0.29;97.08;98987.44;4992269;28;20202;-79
2022/01/09 09:32:32;;;;;;;9.03;4.10;;;;;;;0.31;97.04;98988.28;4985363;28;20263;-79
2022/01/09 09:34:59;;;;;;;4.60;3.77;;;;;;;0.33;97.10;98983.97;4990770;28;20206;-79
2022/01/09 09:37:28;;;;;;;6.17;3.90;;;;;;;0.33;97.06;98983.13;4982516;28;20209;-79
2022/01/09 09:39:54;;;;;;;5.83;3.60;;;;;;;0.35;96.73;98987.41;4989829;28;20273;-79
2022/01/09 09:42:21;;;;;;;6.50;4.30;;;;;;;0.37;96.96;98985.66;4983799;28;20236;-79
2022/01/09 09:44:47;;;;;;;5.57;3.43;;;;;;;0.38;96.95;98987.34;4984847;28;20209;-79
2022/01/09 09:47:18;;;;;;;7.63;3.93;;;;;;;0.37;96.33;98979.69;4981588;28;20225;-79
2022/01/09 09:49:47;;;;;;;5.27;3.60;;;;;;;0.42;96.96;98987.31;4983019;28;20236;-78
2022/01/09 09:52:15;;;;;;;6.13;3.93;;;;;;;0.45;97.34;98984.72;4983228;28;20233;-79
2022/01/09 09:54:42;;;;;;;8.50;4.57;;;;;;;0.49;96.78;98994.94;4985365;28;20232;-79
2022/01/09 09:57:08;;;;;;;6.17;3.77;;;;;;;0.52;97.07;98981.22;4982450;28;20213;-79
2022/01/09 09:59:37;;;;;;;7.00;3.20;;;;;;;0.59;97.02;98985.41;4979575;28;20210;-79
2022/01/09 10:02:09;;;;;;;5.67;4.10;;;;;;;0.67;96.51;98986.19;4983677;28;20224;-79
2022/01/09 10:04:37;;;;;;;5.13;3.60;;;;;;;0.77;96.63;98991.19;4982986;28;20842;-79
2022/01/09 10:07:04;;;;;;;5.07;3.47;;;;;;;0.82;95.98;98990.25;4980264;28;20205;-79
2022/01/09 10:09:30;;;;;;;6.43;4.20;;;;;;;0.92;95.86;98980.75;4987172;28;20222;-79
2022/01/09 10:12:00;;;;;;;8.23;4.20;;;;;;;0.99;95.69;98982.34;4980977;28;20611;-79
2022/01/09 10:14:29;;;;;;;6.27;3.77;;;;;;;1.06;96.11;98975.44;4983607;28;20216;-79
2022/01/09 10:17:19;;;;;;;6.03;3.70;;;;;;;1.12;95.26;98977.88;4984855;28;20600;-79
2022/01/09 10:19:49;;;;;;;8.30;3.97;;;;;;;1.15;95.33;98977.84;4975563;28;20221;-79
2022/01/09 10:22:32;;;;;;;5.77;3.73;;;;;;;1.20;95.12;98973.50;4999413;28;20232;-79
2022/01/09 10:25:17;;;;;;;4.77;3.37;;;;;;;1.26;96.19;98975.97;4978477;28;20275;-79
2022/01/09 10:27:44;;;;;;;5.47;3.40;;;;;;;1.26;94.96;98965.69;4983889;28;20201;-79
2022/01/09 10:30:12;;;;;;;5.10;3.17;;;;;;;1.29;95.34;98980.22;4984338;28;20224;-79
2022/01/09 10:32:39;;;;;;;5.80;3.73;;;;;;;1.30;95.81;98966.50;4978387;28;20232;-79
2022/01/09 10:35:13;;;;;;;4.83;3.17;;;;;;;1.28;95.04;98981.91;4974684;28;20208;-79
2022/01/09 10:37:42;;;;;;;9.20;4.87;;;;;;;1.31;95.50;98974.19;4981844;28;20234;-79
2022/01/09 10:40:11;;;;;;;8.60;4.70;;;;;;;1.36;96.18;98976.69;4980878;28;20283;-79
2022/01/09 10:42:39;;;;;;;10.93;6.80;;;;;;;1.39;96.03;98976.66;4986951;28;20225;-79
2022/01/09 10:45:20;;;;;;;7.87;4.73;;;;;;;1.42;95.48;98984.28;4984993;28;20251;-79
2022/01/09 10:47:48;;;;;;;6.83;4.87;;;;;;;1.48;96.45;98981.66;4985836;28;20701;-79
2022/01/09 10:50:26;;;;;;;8.30;5.27;;;;;;;1.53;95.36;98984.16;4984131;28;20240;-79
2022/01/09 10:52:53;;;;;;;7.10;4.30;;;;;;;1.50;94.93;98979.06;4980863;28;20313;-79
2022/01/09 10:55:19;;;;;;;7.23;4.20;;;;;;;1.55;95.91;98978.97;4988608;28;20207;-79
2022/01/09 10:57:46;;;;;;;8.83;5.00;;;;;;;1.57;95.47;98974.69;4981218;28;20208;-79
2022/01/09 11:00:14;;;;;;;6.47;4.17;;;;;;;1.57;94.73;98983.22;4983891;28;20210;-79
2022/01/09 11:02:42;;;;;;;9.10;5.40;;;;;;;1.58;94.89;98979.75;4978938;28;20227;-79
2022/01/09 11:05:09;;;;;;;7.67;4.20;;;;;;;1.54;95.39;98982.41;4985292;28;20206;-79
2022/01/09 11:07:37;;;;;;;7.03;4.67;;;;;;;1.53;95.42;98986.72;4980628;28;20205;-79
2022/01/09 11:10:07;;;;;;;8.27;4.63;;;;;;;1.51;95.40;98984.16;4982675;28;20220;-79
2022/01/09 11:12:45;;;;;;;8.17;4.50;;;;;;;1.52;95.72;98985.00;4981330;28;20225;-79
2022/01/09 11:15:16;;;;;;;5.30;3.87;;;;;;;1.55;94.89;98987.53;4984687;28;20203;-79
2022/01/09 11:17:42;;;;;;;7.37;4.30;;;;;;;1.59;96.07;98989.19;4982540;28;20562;-79
2022/01/09 11:20:10;;;;;;;7.57;4.50;;;;;;;1.59;95.31;98986.63;4982889;28;20197;-79
2022/01/09 11:22:38;;;;;;;7.17;4.50;;;;;;;1.65;96.08;98986.53;4979019;28;20232;-79
2022/01/09 11:25:12;;;;;;;5.37;4.03;;;;;;;1.66;95.41;98995.06;4980171;28;20215;-79